Airfield :
LOGIN :

Register | Disclaimer

   EN    FR    IT 

 










Legend :    VFR   Marginal VFR   IFR   Intensive IFR   Very Intensive IFR
Visi :
Ceiling :
>= 8 km
>= 3000ft
5 to 8 km
1000 to 3000 ft
1500m to 5 km
500 to 1000 ft
800 to 1500m
200 to 500 ft
< 800m
< 200 ft
Symbols :   Thunderstorms  Fog  Heavy snow  Heavy precipitations  Wind > 20 kt
SIGMETs :     Misc.  Thunderstorms  Icing  Turbulence  Mountain Waves  Volcanic Ashes







- Airport Elevation : 289 ft
- IATA code : ZAD


LDZD - Zadar

CURRENT METAR :
  • 221200Z 08012KT 030V140 9999 SCT030 BKN050 08/01 Q1006 NOSIG

EXPIRED METARs :
  • 221130Z 08012G22KT 030V120 9999 SCT025 BKN050 07/01 Q1006 NOSIG
  • 221100Z 08013KT 040V130 9999 -RA SCT025 BKN050 07/01 Q1006 NOSIG
  • 221030Z 08012KT 030V130 9999 -RA FEW012 BKN028 07/00 Q1005 NOSIG
  • 221000Z 08013KT 030V130 9999 FEW017 BKN030 07/00 Q1005 NOSIG
  • 220930Z 08012KT 050V120 9999 FEW017 OVC030 06/00 Q1005 NOSIG

TAF COR TAF LDZD
Valid from the 22 at 12:00 until the 23 at 12:00 UTC


221125Z 2212/2312 07015KT 9999 BKN030 TX09/2214Z TN04/2220Z
PROB40
TEMPO 2212/2222 07015G25KT
TEMPO 2223/2312 06018G28KT 5000 RA
No reported NOTAMs for that airfield.
1 SIGMET reported for the Zagreb FIR (LDZO) :
 
Severe turbulence
LDZO SIGMET 7 VALID 221200/221500 LDZA
LDZO ZAGREB FIR SEV TURB FCST WI N4535 E01431 - N4436 E01553 - N4415 E01509 - N4527 E01339 - N4535 E01431 SFC/6000FT STNR NC=



MET'MAP, your aeronautical weather chart ! - Copyright ORBIFLY December 2007 - Disclaimer

ORBIFLY MET'MAP TEAM :

Programming & Development : Alexandra Zaïnal
Concept & Development : Baudouin d'Aumeries
Co-Development & Prog : Marc-Olivier Méhu
Technical & hardware support : Manuel Goepfert

Contact : metmap@orbifly.com




SOURCES & CREDITS :

   NOAA